Time;durP1;ratioP1;P1;durP2;ratioP2;P2;SDS_P1;SDS_P2;PMS_P1;PMS_P2;Temp;Humidity;BMP_temperature;BMP_pressure;BME280_temperature;BME280_humidity;BME280_pressure;Samples;Min_cycle;Max_cycle;Signal;HPM_P1;HPM_P2
2022/04/13 00:01:55;;;;;;;66.53;52.50;;;27.70;99.90;;;;;;4207560;28;20044;-70
2022/04/13 00:04:02;;;;;;;61.20;50.55;;;27.70;99.90;;;;;;4205698;28;20045;-70
2022/04/13 00:06:07;;;;;;;62.70;52.03;;;27.70;99.90;;;;;;4206121;28;20041;-70
2022/04/13 00:08:12;;;;;;;60.78;50.08;;;27.70;99.90;;;;;;4208814;28;20097;-70
2022/04/13 00:10:18;;;;;;;64.78;52.25;;;27.70;99.90;;;;;;4207628;28;20032;-70
2022/04/13 00:12:23;;;;;;;60.47;51.67;;;27.80;99.90;;;;;;4207274;28;20056;-70
2022/04/13 00:14:32;;;;;;;58.55;50.15;;;27.80;99.90;;;;;;4212743;28;20036;-71
2022/04/13 00:16:39;;;;;;;62.42;49.55;;;27.90;99.90;;;;;;4212862;28;20043;-71
2022/04/13 00:18:45;;;;;;;60.83;49.38;;;27.90;99.90;;;;;;4214399;28;20067;-70
2022/04/13 00:20:56;;;;;;;55.40;47.67;;;27.90;99.90;;;;;;4179457;28;20106;-72
2022/04/13 00:23:02;;;;;;;58.58;48.88;;;27.90;99.90;;;;;;4221773;28;20410;-71
2022/04/13 00:25:08;;;;;;;54.88;47.13;;;28.00;99.90;;;;;;4223022;28;20058;-72
2022/04/13 00:27:13;;;;;;;56.67;48.30;;;28.00;99.90;;;;;;4216912;28;20757;-69
2022/04/13 00:29:19;;;;;;;53.67;47.80;;;28.10;99.90;;;;;;4205380;28;20135;-68
2022/04/13 00:31:24;;;;;;;58.60;48.28;;;28.10;99.90;;;;;;4225736;28;20134;-69
2022/04/13 00:33:32;;;;;;;55.13;49.08;;;28.20;99.90;;;;;;4212242;28;20806;-70
2022/04/13 00:35:38;;;;;;;60.28;48.95;;;28.20;99.90;;;;;;4211745;28;21380;-71
2022/04/13 00:37:45;;;;;;;53.30;46.80;;;28.30;99.80;;;;;;4210918;28;20052;-72
2022/04/13 00:39:55;;;;;;;58.80;49.08;;;28.30;99.70;;;;;;4212525;28;20756;-69
2022/04/13 00:42:05;;;;;;;56.78;48.47;;;28.40;99.60;;;;;;4212814;28;20068;-70
2022/04/13 00:44:11;;;;;;;57.13;46.72;;;28.40;99.80;;;;;;4211876;28;20090;-69
2022/04/13 00:46:28;;;;;;;53.67;47.72;;;28.50;99.60;;;;;;4211059;28;20394;-69
2022/04/13 00:48:39;;;;;;;54.70;48.28;;;28.50;99.80;;;;;;4211163;28;20040;-71
2022/04/13 00:50:46;;;;;;;58.83;48.03;;;28.60;99.80;;;;;;4212553;28;20044;-68
2022/04/13 00:52:53;;;;;;;55.72;48.53;;;28.60;99.60;;;;;;4212750;28;20048;-69
2022/04/13 00:54:59;;;;;;;57.53;48.20;;;28.70;99.80;;;;;;4212761;28;20574;-69
2022/04/13 00:57:08;;;;;;;54.63;46.65;;;28.70;99.70;;;;;;4212867;28;20054;-68
2022/04/13 00:59:18;;;;;;;57.92;49.88;;;28.70;99.70;;;;;;4213035;28;20047;-67
2022/04/13 01:01:27;;;;;;;56.50;48.35;;;28.70;99.40;;;;;;4211370;28;20032;-71
2022/04/13 01:03:36;;;;;;;52.17;46.70;;;28.80;99.30;;;;;;4208927;28;20086;-69
2022/04/13 01:05:46;;;;;;;56.85;48.40;;;28.90;99.20;;;;;;4209417;28;20498;-70
2022/04/13 01:07:54;;;;;;;51.78;46.13;;;28.90;99.10;;;;;;4212299;28;20566;-70
2022/04/13 01:10:06;;;;;;;55.67;46.53;;;29.00;99.10;;;;;;4212354;28;20075;-70
2022/04/13 01:12:27;;;;;;;50.85;45.42;;;29.00;99.00;;;;;;4209773;28;20443;-70
2022/04/13 01:14:36;;;;;;;59.22;52.72;;;29.00;98.90;;;;;;4211750;28;20044;-71
2022/04/13 01:16:44;;;;;;;58.78;50.22;;;29.10;98.80;;;;;;4210931;28;20047;-68
2022/04/13 01:18:54;;;;;;;53.65;47.90;;;29.10;98.90;;;;;;4212177;28;20790;-71
2022/04/13 01:21:01;;;;;;;55.97;49.10;;;29.20;98.80;;;;;;4210713;28;20044;-70
2022/04/13 01:23:07;;;;;;;53.20;47.63;;;29.20;98.70;;;;;;4211559;28;20090;-69
2022/04/13 01:25:14;;;;;;;53.90;48.25;;;29.30;98.70;;;;;;4209135;28;20066;-70
2022/04/13 01:27:20;;;;;;;52.30;46.63;;;29.30;98.70;;;;;;4209891;28;20450;-70
2022/04/13 01:29:25;;;;;;;53.15;47.50;;;29.40;98.60;;;;;;4212075;28;20052;-70
2022/04/13 01:31:32;;;;;;;50.78;45.47;;;29.40;98.60;;;;;;4212085;28;20078;-70
2022/04/13 01:33:37;;;;;;;52.35;46.25;;;29.50;98.60;;;;;;4210377;28;20044;-70
2022/04/13 01:35:44;;;;;;;51.47;45.95;;;29.60;98.60;;;;;;4212534;28;20708;-70
2022/04/13 01:37:51;;;;;;;52.42;46.78;;;29.60;98.60;;;;;;4211669;28;20797;-70
2022/04/13 01:39:57;;;;;;;52.67;45.60;;;29.60;98.60;;;;;;4211846;28;20040;-70
2022/04/13 01:42:02;;;;;;;53.15;47.15;;;29.60;98.30;;;;;;4209593;28;20089;-70
2022/04/13 01:44:08;;;;;;;54.80;44.70;;;29.70;98.40;;;;;;4213553;28;20445;-70
2022/04/13 01:46:19;;;;;;;51.72;46.05;;;29.70;98.50;;;;;;4210005;28;20020;-68
2022/04/13 01:48:25;;;;;;;52.45;46.80;;;29.60;98.30;;;;;;4211540;28;20414;-75
2022/04/13 01:50:34;;;;;;;48.20;42.72;;;29.70;98.20;;;;;;4212600;28;20050;-73
2022/04/13 01:52:41;;;;;;;47.75;42.75;;;29.80;98.20;;;;;;4212102;28;20040;-68
2022/04/13 01:54:45;;;;;;;44.30;39.65;;;29.80;97.20;;;;;;4211038;28;20119;-72
2022/04/13 01:56:52;;;;;;;44.85;40.13;;;29.70;96.50;;;;;;4210506;28;20130;-70
2022/04/13 01:58:59;;;;;;;43.47;38.88;;;29.70;96.20;;;;;;4216821;28;20407;-69
2022/04/13 02:01:06;;;;;;;43.28;38.08;;;29.80;96.40;;;;;;4212585;28;20040;-70
2022/04/13 02:03:16;;;;;;;51.08;40.90;;;29.70;95.80;;;;;;4209205;28;20064;-65
2022/04/13 02:05:21;;;;;;;45.80;40.38;;;29.80;96.10;;;;;;4211758;28;20036;-69
2022/04/13 02:07:27;;;;;;;45.80;40.83;;;29.80;96.20;;;;;;4214751;28;20051;-71
2022/04/13 02:09:34;;;;;;;43.35;38.67;;;29.90;96.10;;;;;;4213237;28;20040;-72
2022/04/13 02:11:39;;;;;;;47.95;40.35;;;30.00;96.20;;;;;;4211892;28;20151;-71
2022/04/13 02:13:44;;;;;;;44.38;39.58;;;30.10;95.70;;;;;;4212389;28;20055;-71
2022/04/13 02:15:53;;;;;;;45.05;39.70;;;30.00;95.50;;;;;;4220942;28;20035;-70
2022/04/13 02:17:58;;;;;;;43.08;38.70;;;30.10;95.70;;;;;;4223607;28;20505;-70
2022/04/13 02:20:03;;;;;;;43.92;37.53;;;30.10;95.50;;;;;;4211498;28;20421;-72
2022/04/13 02:22:11;;;;;;;44.55;39.65;;;30.20;95.10;;;;;;4211803;28;20046;-69
2022/04/13 02:24:37;;;;;;;45.97;39.55;;;30.30;95.00;;;;;;4225626;28;20046;-71
2022/04/13 02:26:42;;;;;;;43.40;38.80;;;30.30;95.10;;;;;;4227604;28;20055;-69
2022/04/13 02:28:51;;;;;;;46.13;37.60;;;30.40;95.10;;;;;;4223589;28;20094;-70
2022/04/13 02:30:56;;;;;;;42.92;38.28;;;30.50;94.70;;;;;;4229008;28;20051;-69
2022/04/13 02:33:01;;;;;;;41.80;37.03;;;30.50;94.60;;;;;;4219107;27;20047;-70
2022/04/13 02:35:09;;;;;;;44.53;39.72;;;30.60;93.90;;;;;;4208522;28;20047;-69
2022/04/13 02:37:14;;;;;;;44.25;38.35;;;30.50;93.90;;;;;;4210862;28;20093;-68
2022/04/13 02:39:19;;;;;;;44.05;38.13;;;30.60;93.60;;;;;;4213279;28;20056;-67
2022/04/13 02:41:28;;;;;;;44.40;39.65;;;30.60;93.70;;;;;;4203767;28;20060;-68
2022/04/13 02:43:33;;;;;;;45.38;39.30;;;30.70;93.40;;;;;;4211969;28;20052;-68
2022/04/13 02:45:38;;;;;;;46.50;41.50;;;30.70;93.30;;;;;;4212151;28;20564;-68
2022/04/13 02:47:50;;;;;;;42.55;38.03;;;30.80;93.30;;;;;;4194736;28;20131;-67
2022/04/13 02:49:56;;;;;;;43.92;38.72;;;30.90;93.10;;;;;;4219386;28;20151;-68
2022/04/13 02:52:01;;;;;;;42.17;37.67;;;30.90;93.20;;;;;;4224882;28;20059;-67
2022/04/13 02:54:11;;;;;;;39.60;35.13;;;31.00;93.20;;;;;;4228014;28;20067;-67
2022/04/13 02:56:17;;;;;;;37.53;33.55;;;31.10;93.00;;;;;;4219590;28;20413;-67
2022/04/13 02:58:23;;;;;;;39.45;34.95;;;31.20;92.40;;;;;;4216401;28;20409;-67
2022/04/13 03:00:31;;;;;;;39.72;34.67;;;31.20;92.40;;;;;;4217525;28;20043;-67
2022/04/13 03:02:39;;;;;;;42.75;35.55;;;31.20;92.30;;;;;;4220254;28;20562;-68
2022/04/13 03:04:46;;;;;;;38.97;34.88;;;31.30;92.00;;;;;;4223242;27;20083;-68
2022/04/13 03:06:56;;;;;;;38.58;34.35;;;31.30;92.20;;;;;;4225932;28;20065;-69
2022/04/13 03:09:03;;;;;;;36.80;32.97;;;31.40;92.10;;;;;;4216448;28;20135;-68
2022/04/13 03:11:08;;;;;;;39.35;34.22;;;31.40;91.80;;;;;;4226567;28;20043;-67
2022/04/13 03:13:16;;;;;;;37.22;33.35;;;31.50;91.90;;;;;;4199783;28;20078;-67
2022/04/13 03:15:23;;;;;;;38.30;34.20;;;31.60;92.10;;;;;;4217253;28;20052;-68
2022/04/13 03:17:28;;;;;;;38.17;33.33;;;31.60;91.80;;;;;;4217510;28;20079;-68
2022/04/13 03:19:44;;;;;;;38.42;33.65;;;31.70;91.70;;;;;;4166416;28;20108;-68
2022/04/13 03:21:56;;;;;;;40.58;35.08;;;31.70;91.50;;;;;;4227705;28;20043;-69
2022/04/13 03:24:02;;;;;;;37.35;33.38;;;31.70;91.50;;;;;;4233952;27;20036;-69
2022/04/13 03:26:10;;;;;;;37.75;33.80;;;31.70;91.50;;;;;;4234037;27;20044;-68
2022/04/13 03:28:14;;;;;;;36.33;32.03;;;31.80;91.20;;;;;;4234658;27;20091;-68
2022/04/13 03:30:21;;;;;;;37.75;33.80;;;31.80;91.20;;;;;;4233750;27;20368;-68
2022/04/13 03:32:36;;;;;;;37.95;34.08;;;31.80;91.10;;;;;;4219352;28;20060;-69
2022/04/13 03:34:42;;;;;;;37.28;33.38;;;31.90;91.20;;;;;;4234684;28;20075;-69
2022/04/13 03:36:49;;;;;;;36.40;32.60;;;31.90;90.90;;;;;;4230554;27;20043;-69
2022/04/13 03:38:57;;;;;;;36.92;32.75;;;31.90;90.90;;;;;;4184016;28;20079;-70
2022/04/13 03:41:03;;;;;;;37.65;33.33;;;32.00;90.90;;;;;;4216482;28;20127;-69
2022/04/13 03:43:08;;;;;;;38.85;32.88;;;32.00;90.70;;;;;;4217008;28;20066;-68
2022/04/13 03:45:17;;;;;;;36.45;32.47;;;32.00;90.60;;;;;;4199791;28;20484;-69
2022/04/13 03:47:22;;;;;;;35.83;31.80;;;32.10;90.80;;;;;;4216704;28;20044;-70
2022/04/13 03:49:28;;;;;;;35.55;31.85;;;32.20;90.50;;;;;;4216702;28;20064;-67
2022/04/13 03:51:37;;;;;;;36.72;32.53;;;32.40;90.60;;;;;;4216481;28;20052;-70
2022/04/13 03:53:42;;;;;;;35.15;31.27;;;32.40;90.30;;;;;;4217707;28;20043;-69
2022/04/13 03:55:51;;;;;;;38.05;30.70;;;32.50;90.30;;;;;;4217007;28;20055;-69
2022/04/13 03:58:01;;;;;;;36.78;32.67;;;32.50;90.60;;;;;;4216838;28;20135;-68
2022/04/13 04:00:10;;;;;;;38.22;33.15;;;32.60;90.80;;;;;;4216954;28;20052;-69
2022/04/13 04:02:16;;;;;;;35.65;31.77;;;32.70;90.50;;;;;;4216941;28;20035;-69
2022/04/13 04:04:28;;;;;;;38.05;33.40;;;32.70;90.30;;;;;;4206102;28;20067;-67
2022/04/13 04:06:37;;;;;;;36.35;32.70;;;32.80;90.30;;;;;;4214860;28;20067;-68
2022/04/13 04:08:56;;;;;;;35.72;32.03;;;32.80;88.40;;;;;;4209778;28;20168;-69
2022/04/13 04:11:05;;;;;;;35.35;31.55;;;32.80;89.50;;;;;;4214597;28;20641;-68
2022/04/13 04:13:11;;;;;;;34.45;30.48;;;32.80;89.50;;;;;;4214652;28;20052;-69
2022/04/13 04:15:18;;;;;;;36.63;32.53;;;33.00;89.00;;;;;;4213362;28;20063;-68
2022/04/13 04:17:56;;;;;;;34.65;30.95;;;33.00;89.90;;;;;;4184805;28;20131;-67
2022/04/13 04:20:04;;;;;;;35.60;31.67;;;33.10;88.50;;;;;;4202799;28;20044;-68
2022/04/13 04:22:18;;;;;;;36.25;32.53;;;33.10;88.90;;;;;;4213957;28;20044;-69
2022/04/13 04:24:33;;;;;;;36.72;32.28;;;33.10;89.90;;;;;;4214359;28;20078;-69
2022/04/13 04:26:38;;;;;;;36.83;32.90;;;33.20;90.20;;;;;;4213885;28;20048;-69
2022/04/13 04:28:42;;;;;;;37.13;32.20;;;33.20;90.40;;;;;;4214937;28;20036;-69
2022/04/13 04:31:02;;;;;;;38.55;33.00;;;33.20;90.20;;;;;;4213324;28;20052;-71
2022/04/13 04:33:16;;;;;;;34.47;30.92;;;33.30;90.10;;;;;;4214095;28;20097;-70
2022/04/13 04:35:21;;;;;;;36.08;32.28;;;33.30;89.90;;;;;;4214883;28;20048;-72
2022/04/13 04:37:30;;;;;;;36.80;31.65;;;33.40;89.10;;;;;;4209398;28;20056;-69
2022/04/13 04:39:36;;;;;;;35.75;32.10;;;33.40;88.90;;;;;;4214278;28;20044;-68
2022/04/13 04:41:42;;;;;;;36.35;32.30;;;33.40;88.70;;;;;;4214012;28;20036;-68
2022/04/13 04:44:02;;;;;;;36.13;32.25;;;33.40;88.50;;;;;;4212988;28;20051;-67
2022/04/13 04:46:12;;;;;;;36.78;32.92;;;33.50;88.70;;;;;;4212939;28;20117;-68
2022/04/13 04:48:21;;;;;;;38.47;32.47;;;33.60;88.90;;;;;;4213592;28;20092;-67
2022/04/13 04:50:31;;;;;;;34.97;31.15;;;33.60;88.60;;;;;;4213884;28;20044;-68
2022/04/13 04:52:44;;;;;;;34.28;30.75;;;33.70;88.90;;;;;;4213802;28;20072;-69
2022/04/13 04:54:49;;;;;;;37.03;31.83;;;33.70;88.90;;;;;;4213001;28;20434;-69
2022/04/13 04:56:56;;;;;;;37.85;32.70;;;33.70;88.30;;;;;;4194247;28;20210;-67
2022/04/13 04:59:01;;;;;;;37.78;32.38;;;33.70;88.60;;;;;;4205856;28;20032;-68
2022/04/13 05:01:06;;;;;;;37.65;33.75;;;33.80;87.90;;;;;;4213253;28;20048;-67
2022/04/13 05:03:11;;;;;;;37.72;33.80;;;33.80;88.40;;;;;;4211369;28;20514;-67
2022/04/13 05:05:16;;;;;;;37.97;32.85;;;33.80;89.00;;;;;;4211027;28;20052;-65
2022/04/13 05:07:22;;;;;;;35.95;32.45;;;33.80;89.40;;;;;;4213067;28;20051;-68
2022/04/13 05:09:32;;;;;;;37.58;33.67;;;33.90;90.00;;;;;;4213856;28;20040;-65
2022/04/13 05:11:38;;;;;;;35.42;31.70;;;33.90;90.00;;;;;;4211959;28;20097;-68
2022/04/13 05:13:47;;;;;;;37.22;33.25;;;33.90;89.40;;;;;;4212286;28;20054;-68
2022/04/13 05:16:03;;;;;;;41.28;32.42;;;34.00;89.50;;;;;;4211912;28;20044;-67
2022/04/13 05:18:13;;;;;;;37.00;32.22;;;34.10;89.50;;;;;;4178633;28;20056;-68
2022/04/13 05:20:19;;;;;;;36.88;33.17;;;34.20;89.20;;;;;;4211479;28;20040;-68
2022/04/13 05:22:31;;;;;;;36.40;32.58;;;34.20;88.40;;;;;;4191826;28;20141;-68
2022/04/13 05:24:37;;;;;;;36.95;32.95;;;34.20;88.40;;;;;;4204388;28;20044;-69
2022/04/13 05:26:42;;;;;;;38.92;34.80;;;34.20;88.30;;;;;;4205567;28;20055;-67
2022/04/13 05:28:51;;;;;;;37.60;33.65;;;34.30;87.50;;;;;;4208100;28;20152;-67
2022/04/13 05:30:56;;;;;;;37.00;33.35;;;34.30;88.10;;;;;;4209307;28;20044;-68
2022/04/13 05:33:02;;;;;;;38.17;34.08;;;34.40;87.30;;;;;;4212541;28;20061;-67
2022/04/13 05:35:11;;;;;;;40.45;34.92;;;34.30;87.60;;;;;;4177467;28;20106;-68
2022/04/13 05:37:16;;;;;;;40.45;34.95;;;34.40;87.60;;;;;;4212182;28;20596;-68
2022/04/13 05:39:21;;;;;;;38.38;33.50;;;34.40;87.30;;;;;;4213961;28;20109;-68
2022/04/13 05:41:33;;;;;;;38.95;33.50;;;34.40;87.00;;;;;;4212443;28;20454;-68
2022/04/13 05:43:37;;;;;;;39.35;32.53;;;34.40;87.60;;;;;;4213223;28;20047;-68
2022/04/13 05:45:44;;;;;;;37.75;33.67;;;34.40;86.80;;;;;;4212014;28;20051;-69
2022/04/13 05:47:52;;;;;;;41.60;34.20;;;34.40;86.00;;;;;;4195181;28;20055;-68
2022/04/13 05:49:57;;;;;;;37.85;32.72;;;34.50;86.70;;;;;;4213380;28;20122;-69
2022/04/13 05:52:03;;;;;;;37.60;33.50;;;34.50;87.20;;;;;;4211517;28;20036;-68
2022/04/13 05:54:08;;;;;;;36.60;32.70;;;34.50;86.90;;;;;;4211304;28;20066;-69
2022/04/13 05:56:13;;;;;;;37.15;33.15;;;34.70;86.70;;;;;;4194578;28;20451;-68
2022/04/13 05:58:19;;;;;;;42.15;34.33;;;34.70;86.10;;;;;;4212277;28;20101;-68
2022/04/13 06:00:28;;;;;;;38.33;33.25;;;34.70;86.10;;;;;;4176497;28;20107;-70
2022/04/13 06:02:35;;;;;;;39.35;35.33;;;34.70;86.50;;;;;;4210837;28;20083;-69
2022/04/13 06:04:42;;;;;;;38.50;34.60;;;34.70;85.80;;;;;;4193294;28;20475;-68
2022/04/13 06:06:54;;;;;;;37.63;33.72;;;34.70;86.30;;;;;;4160692;28;20057;-68
2022/04/13 06:09:01;;;;;;;39.85;35.65;;;34.70;85.90;;;;;;4194546;28;20457;-67
2022/04/13 06:11:06;;;;;;;39.08;35.00;;;34.70;86.40;;;;;;4211273;28;20134;-68
2022/04/13 06:13:12;;;;;;;37.08;33.20;;;34.70;86.60;;;;;;4212123;28;20419;-68
2022/04/13 06:15:22;;;;;;;38.83;34.10;;;34.70;86.90;;;;;;4212673;28;20063;-67
2022/04/13 06:17:28;;;;;;;39.08;35.03;;;34.80;86.40;;;;;;4211019;28;20052;-67
2022/04/13 06:19:36;;;;;;;36.55;32.85;;;34.80;87.00;;;;;;4212509;28;20062;-68
2022/04/13 06:21:41;;;;;;;36.58;32.88;;;34.90;86.50;;;;;;4211880;28;20048;-68
2022/04/13 06:23:47;;;;;;;37.05;33.22;;;34.90;85.50;;;;;;4212535;28;20068;-66
2022/04/13 06:25:57;;;;;;;35.45;31.80;;;34.90;85.60;;;;;;4193820;28;20062;-68
2022/04/13 06:28:04;;;;;;;35.40;31.83;;;34.90;85.90;;;;;;4211850;28;20079;-67
2022/04/13 06:30:14;;;;;;;35.28;31.67;;;35.00;85.00;;;;;;4184744;28;20056;-67
2022/04/13 06:32:33;;;;;;;39.72;33.33;;;35.00;85.50;;;;;;4212056;28;20050;-68
2022/04/13 06:34:38;;;;;;;35.22;31.60;;;35.00;85.70;;;;;;4211559;28;20055;-68
2022/04/13 06:36:43;;;;;;;35.45;31.70;;;35.00;85.60;;;;;;4212290;28;20051;-68
2022/04/13 06:38:50;;;;;;;36.10;32.38;;;35.00;85.90;;;;;;4209811;28;20051;-70
2022/04/13 06:40:55;;;;;;;37.20;31.73;;;35.10;85.80;;;;;;4210876;28;20082;-70
2022/04/13 06:43:00;;;;;;;36.15;32.42;;;35.20;85.30;;;;;;4212889;28;20044;-69
2022/04/13 06:45:14;;;;;;;37.97;33.78;;;35.20;85.30;;;;;;4211639;28;20603;-69
2022/04/13 06:47:19;;;;;;;35.42;31.65;;;35.20;85.00;;;;;;4209749;28;20104;-69
2022/04/13 06:49:24;;;;;;;35.38;31.73;;;35.20;85.50;;;;;;4211797;28;20139;-70
2022/04/13 06:51:33;;;;;;;36.28;32.55;;;35.20;85.50;;;;;;4211219;28;20040;-68
2022/04/13 06:53:38;;;;;;;36.20;32.35;;;35.30;85.10;;;;;;4210237;28;20555;-69
2022/04/13 06:55:44;;;;;;;35.60;31.90;;;35.30;84.50;;;;;;4208552;28;20072;-69
2022/04/13 06:57:53;;;;;;;35.05;31.25;;;35.30;84.50;;;;;;4212033;28;20050;-69
2022/04/13 06:59:58;;;;;;;35.00;31.33;;;35.30;84.30;;;;;;4211793;28;20044;-69
2022/04/13 07:02:06;;;;;;;33.58;30.08;;;35.30;84.30;;;;;;4211837;28;20463;-69
2022/04/13 07:04:17;;;;;;;33.58;30.10;;;35.40;83.60;;;;;;4211972;28;20059;-69
2022/04/13 07:06:23;;;;;;;33.13;29.55;;;35.40;83.50;;;;;;4210310;28;20663;-69
2022/04/13 07:08:45;;;;;;;32.58;29.35;;;35.50;83.40;;;;;;4211202;28;20497;-69
2022/04/13 07:10:51;;;;;;;32.10;28.90;;;35.50;83.00;;;;;;4208946;28;20032;-69
2022/04/13 07:12:57;;;;;;;32.58;29.25;;;35.60;82.90;;;;;;4210426;28;20040;-69
2022/04/13 07:15:03;;;;;;;35.45;29.98;;;35.60;83.30;;;;;;4211905;28;20051;-70
2022/04/13 07:17:11;;;;;;;32.42;29.20;;;35.60;83.60;;;;;;4210129;28;20082;-69
2022/04/13 07:19:16;;;;;;;31.92;28.52;;;35.50;83.90;;;;;;4211689;28;20109;-70
2022/04/13 07:21:21;;;;;;;33.17;29.65;;;35.50;84.20;;;;;;4209009;28;20052;-69
2022/04/13 07:23:51;;;;;;;32.28;29.10;;;35.50;84.20;;;;;;4192374;28;20076;-69
2022/04/13 07:25:56;;;;;;;34.97;29.90;;;35.50;83.60;;;;;;4192466;28;20082;-68
2022/04/13 07:28:04;;;;;;;32.78;29.58;;;35.60;83.30;;;;;;4192771;28;20597;-67
2022/04/13 07:30:13;;;;;;;31.77;28.52;;;35.60;82.90;;;;;;4192356;28;20110;-69
2022/04/13 07:32:18;;;;;;;31.65;28.45;;;35.70;82.50;;;;;;4191716;28;20041;-69
2022/04/13 07:34:23;;;;;;;32.55;29.15;;;35.70;82.40;;;;;;4191986;28;20044;-69
2022/04/13 07:36:33;;;;;;;32.95;29.40;;;35.70;81.70;;;;;;4193012;28;20049;-70
2022/04/13 07:38:38;;;;;;;33.90;30.40;;;35.70;82.10;;;;;;4191681;28;20051;-69
2022/04/13 07:40:44;;;;;;;34.00;30.35;;;35.70;81.80;;;;;;4192283;28;20066;-70
2022/04/13 07:42:55;;;;;;;32.97;29.75;;;35.70;81.00;;;;;;4192104;28;20045;-69
2022/04/13 07:45:03;;;;;;;32.70;28.90;;;35.70;80.80;;;;;;4195803;28;20050;-68
2022/04/13 07:47:08;;;;;;;32.33;29.13;;;35.70;81.00;;;;;;4195755;28;20081;-69
2022/04/13 07:49:18;;;;;;;33.40;29.92;;;35.70;80.90;;;;;;4194916;28;20048;-69
2022/04/13 07:51:24;;;;;;;31.35;28.05;;;35.70;80.80;;;;;;4195196;28;20147;-69
2022/04/13 07:53:29;;;;;;;32.05;28.85;;;35.70;80.00;;;;;;4194853;28;20036;-69
2022/04/13 07:55:37;;;;;;;31.35;28.27;;;35.70;80.00;;;;;;4195186;28;20036;-68
2022/04/13 07:57:42;;;;;;;32.58;29.25;;;35.60;79.70;;;;;;4194986;28;20694;-69
2022/04/13 07:59:48;;;;;;;32.22;28.77;;;35.70;78.90;;;;;;4195370;28;20048;-69
2022/04/13 08:01:56;;;;;;;31.63;28.33;;;35.70;79.40;;;;;;4208132;28;20063;-69
2022/04/13 08:04:02;;;;;;;31.15;27.58;;;35.70;79.50;;;;;;4214639;28;20074;-69
2022/04/13 08:06:29;;;;;;;31.75;27.92;;;35.70;79.90;;;;;;4213637;28;20134;-68
2022/04/13 08:08:36;;;;;;;31.85;26.42;;;35.80;80.80;;;;;;4203731;28;20055;-69
2022/04/13 08:10:41;;;;;;;29.92;26.90;;;35.90;81.80;;;;;;4214783;28;20406;-70
2022/04/13 08:12:47;;;;;;;30.83;27.63;;;35.90;81.10;;;;;;4214067;28;20052;-70
2022/04/13 08:14:53;;;;;;;30.73;27.73;;;35.90;81.20;;;;;;4214360;28;20075;-69
2022/04/13 08:17:03;;;;;;;30.02;26.90;;;35.90;80.40;;;;;;4214141;28;20086;-69
2022/04/13 08:19:09;;;;;;;29.55;26.50;;;36.00;81.10;;;;;;4213276;28;20051;-67
2022/04/13 08:21:17;;;;;;;32.50;26.55;;;35.90;80.60;;;;;;4213844;28;20036;-69
2022/04/13 08:23:23;;;;;;;29.25;26.27;;;36.00;80.30;;;;;;4213420;28;20047;-68
2022/04/13 08:25:28;;;;;;;30.00;26.90;;;35.90;80.30;;;;;;4211278;28;20376;-67
2022/04/13 08:27:35;;;;;;;28.95;25.83;;;35.90;79.50;;;;;;4194371;28;20055;-66
2022/04/13 08:29:42;;;;;;;31.08;26.33;;;35.90;79.40;;;;;;4213651;28;20052;-68
2022/04/13 08:31:46;;;;;;;30.20;26.30;;;35.90;79.50;;;;;;4213402;28;20047;-68
2022/04/13 08:33:54;;;;;;;29.30;26.20;;;35.90;79.50;;;;;;4212318;28;20356;-69
2022/04/13 08:35:59;;;;;;;29.45;26.42;;;35.90;79.70;;;;;;4214414;28;20079;-70
2022/04/13 08:38:04;;;;;;;28.35;25.33;;;35.90;80.00;;;;;;4212386;28;20044;-70
2022/04/13 08:40:12;;;;;;;28.90;26.00;;;35.90;79.70;;;;;;4197315;28;20479;-70
2022/04/13 08:42:33;;;;;;;28.00;25.27;;;35.80;79.40;;;;;;4197431;28;20044;-70
2022/04/13 08:45:00;;;;;;;27.25;24.55;;;35.70;79.40;;;;;;4210994;28;20402;-70
2022/04/13 08:47:13;;;;;;;27.52;24.92;;;35.70;79.60;;;;;;4213281;28;20040;-67
2022/04/13 08:49:18;;;;;;;28.83;25.73;;;35.70;79.80;;;;;;4197405;28;20032;-69
2022/04/13 08:51:38;;;;;;;30.35;26.92;;;35.60;79.80;;;;;;4197174;28;20413;-71
2022/04/13 08:53:51;;;;;;;32.38;27.33;;;35.50;80.40;;;;;;4157816;28;20041;-69
2022/04/13 08:55:58;;;;;;;28.35;25.52;;;35.40;80.30;;;;;;4178700;28;20041;-72
2022/04/13 08:58:11;;;;;;;29.88;26.42;;;35.40;79.40;;;;;;4177445;28;20051;-70
2022/04/13 09:00:20;;;;;;;29.23;26.13;;;35.30;79.50;;;;;;4178280;28;20134;-70
2022/04/13 09:02:50;;;;;;;28.65;25.85;;;35.20;80.40;;;;;;4160470;28;20054;-69
2022/04/13 09:05:00;;;;;;;28.50;25.67;;;35.10;81.40;;;;;;4176573;28;20495;-70
2022/04/13 09:07:09;;;;;;;29.90;26.77;;;35.10;80.50;;;;;;4158821;28;20057;-68
2022/04/13 09:09:18;;;;;;;30.00;26.80;;;35.00;81.60;;;;;;4125841;28;20605;-70
2022/04/13 09:11:23;;;;;;;29.08;26.17;;;35.00;81.10;;;;;;4124927;28;20054;-69
2022/04/13 09:13:33;;;;;;;29.33;25.80;;;34.90;81.20;;;;;;4109291;28;20054;-69
2022/04/13 09:15:42;;;;;;;32.00;27.20;;;34.90;81.50;;;;;;4126904;28;20046;-70
2022/04/13 09:17:52;;;;;;;34.65;28.58;;;34.80;81.60;;;;;;4126587;28;20129;-69
2022/04/13 09:20:05;;;;;;;35.53;29.10;;;34.80;81.90;;;;;;4061872;28;20460;-69
2022/04/13 09:22:12;;;;;;;33.60;30.10;;;34.80;82.20;;;;;;4125949;28;20052;-70
2022/04/13 09:24:17;;;;;;;50.50;31.20;;;34.80;82.30;;;;;;4122894;28;20050;-70
2022/04/13 09:26:27;;;;;;;33.83;28.73;;;34.80;82.70;;;;;;4126755;28;20897;-70
2022/04/13 09:28:33;;;;;;;32.33;28.88;;;34.70;82.60;;;;;;4125544;28;20062;-69
2022/04/13 09:30:40;;;;;;;31.88;28.05;;;34.70;82.80;;;;;;4114490;28;20054;-70
2022/04/13 09:32:49;;;;;;;32.67;28.63;;;34.70;83.20;;;;;;4110768;28;20039;-68
2022/04/13 09:34:55;;;;;;;33.33;29.83;;;34.70;83.60;;;;;;4127671;28;20050;-68
2022/04/13 09:37:01;;;;;;;33.00;29.50;;;34.60;83.70;;;;;;4141623;28;20073;-69
2022/04/13 09:39:12;;;;;;;32.30;28.83;;;34.60;84.00;;;;;;4109775;28;20054;-70
2022/04/13 09:41:17;;;;;;;30.90;27.83;;;34.60;84.20;;;;;;4154245;28;20049;-69
2022/04/13 09:43:29;;;;;;;34.67;29.95;;;34.60;84.30;;;;;;4142084;28;20217;-70
2022/04/13 09:45:43;;;;;;;33.10;29.55;;;34.50;85.10;;;;;;4142402;28;20053;-69
2022/04/13 09:47:49;;;;;;;36.65;29.40;;;34.50;86.60;;;;;;4160084;28;20140;-70
2022/04/13 09:49:55;;;;;;;30.98;27.75;;;34.50;86.80;;;;;;4206914;28;20048;-70
2022/04/13 09:52:05;;;;;;;30.35;26.67;;;34.50;86.20;;;;;;4205657;28;20577;-69
2022/04/13 09:54:11;;;;;;;30.00;26.00;;;34.50;85.40;;;;;;4175278;28;20692;-69
2022/04/13 09:56:18;;;;;;;35.83;32.00;;;34.40;83.60;;;;;;4209534;28;20102;-69
2022/04/13 09:58:29;;;;;;;32.20;28.80;;;34.40;81.50;;;;;;4210820;28;20050;-68
2022/04/13 10:00:36;;;;;;;34.65;29.90;;;34.30;80.00;;;;;;4209451;28;20145;-69
2022/04/13 10:02:42;;;;;;;34.10;30.58;;;34.30;81.10;;;;;;4193146;28;20044;-69
2022/04/13 10:04:53;;;;;;;36.60;31.88;;;34.30;81.20;;;;;;4209058;28;20070;-68
2022/04/13 10:07:15;;;;;;;42.78;38.30;;;34.30;81.00;;;;;;4209559;28;20040;-67
2022/04/13 10:09:22;;;;;;;41.47;35.72;;;34.30;81.00;;;;;;4193197;28;20040;-69
2022/04/13 10:11:31;;;;;;;41.45;37.08;;;34.30;81.30;;;;;;4208554;28;20077;-69
2022/04/13 10:13:43;;;;;;;38.45;34.35;;;34.30;81.10;;;;;;4208351;28;20129;-69
2022/04/13 10:15:59;;;;;;;37.80;33.75;;;34.30;80.80;;;;;;4210665;28;20494;-68
2022/04/13 10:18:07;;;;;;;31.92;28.23;;;34.40;80.70;;;;;;4210074;28;20036;-69
2022/04/13 10:20:12;;;;;;;34.70;30.92;;;34.40;78.80;;;;;;4211521;28;20044;-70
2022/04/13 10:22:18;;;;;;;38.92;34.83;;;34.40;79.80;;;;;;4187764;28;20041;-68
2022/04/13 10:24:35;;;;;;;41.08;36.88;;;34.40;79.50;;;;;;4207778;28;20491;-68
2022/04/13 10:27:07;;;;;;;38.25;34.17;;;34.40;80.30;;;;;;4171781;28;20056;-68
2022/04/13 10:29:17;;;;;;;36.85;33.10;;;34.40;80.40;;;;;;4207145;28;20426;-68
2022/04/13 10:31:25;;;;;;;33.85;29.73;;;34.30;80.60;;;;;;4206311;28;20525;-68
2022/04/13 10:33:31;;;;;;;39.30;29.92;;;34.30;81.70;;;;;;4209805;28;20498;-69
2022/04/13 10:35:43;;;;;;;32.75;28.77;;;34.30;83.50;;;;;;4151571;28;20155;-68
2022/04/13 10:37:51;;;;;;;39.70;29.52;;;34.30;84.30;;;;;;4136752;28;20093;-69
2022/04/13 10:40:00;;;;;;;33.95;27.95;;;34.30;84.50;;;;;;4159085;28;20041;-69
2022/04/13 10:42:06;;;;;;;35.33;28.80;;;34.30;84.00;;;;;;4157053;28;20046;-68
2022/04/13 10:44:14;;;;;;;39.80;29.48;;;34.30;84.10;;;;;;4158735;28;20573;-68
2022/04/13 10:46:21;;;;;;;35.80;28.80;;;34.30;84.10;;;;;;4157289;28;20057;-70
2022/04/13 10:48:31;;;;;;;37.75;30.77;;;34.30;84.10;;;;;;4127105;28;20132;-67
2022/04/13 10:50:59;;;;;;;39.78;30.75;;;34.30;84.30;;;;;;4143493;28;20707;-70
2022/04/13 10:53:14;;;;;;;47.03;34.38;;;34.20;84.00;;;;;;4156388;28;20552;-74